Seeley, California
Current Conditions -  °F | °C
As of 8:56 AM on Wednesday 26 Nov 2014 (Local Time) from KNJK Reporting Station
Clear Clear  
Wind Chill: 58°   Ceiling: Unl
Heat Index: 58°   Visibility: 10mi
Dew Point: 23°   Wind: 3mph
Humidity: 26%   Direction: 210°SSW
Pressure: 30.31"   Gusts: NA
Location:  32.79°N, 115.69°W
Report Text: KNJK 261656Z 21003KT 10SM CLR 14/M05 A3031 RMK AO2 SLP280 T01441050
Loading
Personal Weather Stations






























Interactive Weather Map New forecast layout! Learn more

10-Day Weather Forecast

Advertisements
Track Severe Weather on mobile